createdAt,value
2023-01-21T00:01:19.593Z,4.00
2023-01-21T00:03:46.761Z,2.75
2023-01-21T00:06:15.155Z,3.10
2023-01-21T00:08:41.861Z,4.05
2023-01-21T00:11:14.448Z,3.33
2023-01-21T00:13:41.741Z,3.47
2023-01-21T00:16:08.847Z,2.72
2023-01-21T00:18:35.531Z,2.55
2023-01-21T00:21:02.328Z,3.90
2023-01-21T00:23:29.024Z,2.58
2023-01-21T00:25:59.897Z,2.30
2023-01-21T00:28:30.402Z,2.80
2023-01-21T00:30:59.264Z,2.30
2023-01-21T00:33:26.628Z,2.20
2023-01-21T00:36:01.991Z,2.45
2023-01-21T00:38:29.464Z,2.72
2023-01-21T00:41:12.898Z,2.35
2023-01-21T00:43:43.406Z,2.15
2023-01-21T00:46:11.076Z,2.30
2023-01-21T00:48:37.891Z,2.70
2023-01-21T00:51:04.760Z,2.70
2023-01-21T00:53:33.927Z,3.30
2023-01-21T00:56:05.991Z,2.25
2023-01-21T00:58:33.690Z,2.08
2023-01-21T01:01:05.566Z,2.28
2023-01-21T01:03:33.587Z,2.17
2023-01-21T01:06:08.188Z,2.05
2023-01-21T01:08:35.038Z,2.28
2023-01-21T01:11:01.801Z,2.40
2023-01-21T01:13:28.848Z,2.20
2023-01-21T01:15:57.455Z,2.45
2023-01-21T01:18:25.258Z,2.33
2023-01-21T01:20:52.083Z,2.13
2023-01-21T01:23:18.888Z,2.50
2023-01-21T01:26:04.635Z,2.33
2023-01-21T01:28:32.158Z,2.30
2023-01-21T01:30:59.259Z,1.90
2023-01-21T01:33:26.872Z,1.70
2023-01-21T01:35:53.678Z,1.90
2023-01-21T01:38:22.030Z,1.92
2023-01-21T01:40:50.572Z,2.42
2023-01-21T01:43:23.667Z,1.73
2023-01-21T01:45:50.823Z,2.67
2023-01-21T01:48:28.189Z,1.92
2023-01-21T01:51:01.021Z,1.80
2023-01-21T01:53:29.578Z,2.10
2023-01-21T01:55:56.783Z,2.90
2023-01-21T01:58:24.095Z,2.38
2023-01-21T02:00:50.720Z,2.20
2023-01-21T02:03:36.323Z,2.55
2023-01-21T02:06:02.976Z,1.58
2023-01-21T02:08:29.936Z,2.47
2023-01-21T02:10:56.584Z,1.80
2023-01-21T02:13:27.895Z,1.85
2023-01-21T02:16:18.824Z,1.85
2023-01-21T02:19:21.556Z,2.05
2023-01-21T02:22:06.807Z,1.75
2023-01-21T02:24:51.732Z,1.70
2023-01-21T02:27:30.866Z,2.08
2023-01-21T02:30:16.277Z,2.05
2023-01-21T02:33:04.366Z,1.73
2023-01-21T02:36:15.842Z,2.17
2023-01-21T02:39:01.131Z,2.25
2023-01-21T02:41:56.115Z,1.90
2023-01-21T02:44:37.465Z,1.80
2023-01-21T02:47:22.811Z,1.43
2023-01-21T02:49:53.623Z,2.78
2023-01-21T02:52:22.397Z,1.75
2023-01-21T02:54:52.316Z,1.73
2023-01-21T02:57:27.884Z,2.63
2023-01-21T02:59:56.665Z,2.00
2023-01-21T03:02:51.995Z,1.85
2023-01-21T03:05:38.808Z,2.15
2023-01-21T03:08:50.791Z,1.50
2023-01-21T03:11:19.937Z,1.60
2023-01-21T03:14:20.372Z,2.10
2023-01-21T03:16:58.047Z,1.80
2023-01-21T03:19:56.602Z,1.58
2023-01-21T03:22:29.205Z,1.70
2023-01-21T03:24:57.884Z,1.65
2023-01-21T03:27:27.149Z,1.73
2023-01-21T03:29:58.585Z,1.58
2023-01-21T03:32:27.621Z,1.70
2023-01-21T03:34:55.974Z,2.40
2023-01-21T03:37:30.639Z,1.73
2023-01-21T03:40:27.263Z,1.60
2023-01-21T03:42:56.277Z,1.70
2023-01-21T03:45:37.192Z,1.55
2023-01-21T03:48:26.737Z,1.40
2023-01-21T03:50:59.785Z,1.40
2023-01-21T03:53:26.483Z,1.95
2023-01-21T03:55:53.205Z,1.50
2023-01-21T03:58:19.893Z,2.05
2023-01-21T04:00:48.223Z,1.73
2023-01-21T04:03:14.898Z,1.63
2023-01-21T04:05:41.531Z,1.88
2023-01-21T04:08:08.136Z,1.70
2023-01-21T04:10:34.748Z,1.77
2023-01-21T04:13:01.335Z,1.80
2023-01-21T04:15:27.977Z,1.70
2023-01-21T04:17:54.593Z,1.63
2023-01-21T04:20:21.254Z,1.73
2023-01-21T04:22:47.837Z,1.60
2023-01-21T04:25:14.476Z,1.80
2023-01-21T04:27:41.144Z,1.40
2023-01-21T04:30:08.405Z,1.50
2023-01-21T04:32:35.074Z,1.55
2023-01-21T04:35:01.687Z,1.40
2023-01-21T04:37:28.265Z,2.08
2023-01-21T04:39:54.875Z,1.50
2023-01-21T04:42:21.445Z,1.50
2023-01-21T04:44:48.058Z,1.77
2023-01-21T04:47:14.628Z,1.50
2023-01-21T04:49:41.288Z,1.45
2023-01-21T04:52:07.921Z,1.63
2023-01-21T04:54:34.583Z,1.60
2023-01-21T04:57:01.171Z,1.50
2023-01-21T04:59:27.731Z,1.77
2023-01-21T05:01:54.321Z,1.45
2023-01-21T05:04:20.890Z,1.55
2023-01-21T05:06:47.486Z,1.45
2023-01-21T05:09:14.105Z,2.08
2023-01-21T05:11:40.819Z,1.60
2023-01-21T05:14:07.412Z,1.63
2023-01-21T05:16:34.087Z,1.42
2023-01-21T05:19:00.725Z,1.60
2023-01-21T05:21:27.405Z,1.67
2023-01-21T05:23:54.411Z,1.70
2023-01-21T05:26:20.985Z,1.33
2023-01-21T05:28:47.515Z,1.17
2023-01-21T05:31:14.376Z,1.30
2023-01-21T05:33:43.832Z,2.88
2023-01-21T05:36:10.646Z,1.42
2023-01-21T05:38:37.184Z,1.70
2023-01-21T05:41:04.523Z,1.50
2023-01-21T05:43:31.446Z,1.65
2023-01-21T05:45:58.081Z,1.55
2023-01-21T05:48:24.893Z,1.60
2023-01-21T05:50:51.653Z,1.50
2023-01-21T05:53:18.452Z,1.20
2023-01-21T05:55:45.094Z,1.20
2023-01-21T05:58:12.134Z,1.52
2023-01-21T06:00:38.829Z,1.70
2023-01-21T06:03:05.451Z,1.27
2023-01-21T06:05:32.086Z,1.50
2023-01-21T06:07:58.717Z,1.67
2023-01-21T06:10:25.349Z,1.45
2023-01-21T06:12:52.380Z,1.63
2023-01-21T06:15:19.812Z,1.40
2023-01-21T06:17:47.494Z,2.33
2023-01-21T06:20:14.583Z,1.20
2023-01-21T06:22:41.298Z,1.42
2023-01-21T06:25:08.158Z,1.40
2023-01-21T06:27:37.110Z,1.80
2023-01-21T06:30:06.016Z,1.15
2023-01-21T06:32:33.965Z,2.17
2023-01-21T06:35:00.577Z,1.35
2023-01-21T06:37:27.505Z,1.83
2023-01-21T06:39:54.336Z,1.50
2023-01-21T06:42:21.030Z,1.95
2023-01-21T06:44:47.902Z,3.90
2023-01-21T06:47:14.888Z,2.00
2023-01-21T06:49:41.584Z,5.30
2023-01-21T06:52:08.744Z,4.97
2023-01-21T06:54:35.427Z,2.00
2023-01-21T06:57:02.204Z,4.10
2023-01-21T06:59:28.891Z,6.80
2023-01-21T07:01:58.762Z,13.25
2023-01-21T07:04:26.527Z,7.20
2023-01-21T07:06:53.826Z,7.53
2023-01-21T07:09:20.773Z,5.38
2023-01-21T07:11:47.988Z,5.88
2023-01-21T07:14:14.781Z,4.05
2023-01-21T07:16:41.576Z,7.95
2023-01-21T07:19:08.376Z,5.72
2023-01-21T07:21:35.105Z,5.88
2023-01-21T07:24:01.675Z,11.45
2023-01-21T07:26:28.264Z,5.93
2023-01-21T07:28:54.928Z,7.00
2023-01-21T07:31:21.656Z,5.50
2023-01-21T07:33:48.397Z,6.35
2023-01-21T07:36:15.021Z,7.22
2023-01-21T07:38:41.682Z,6.32
2023-01-21T07:41:08.322Z,6.18
2023-01-21T07:43:34.881Z,3.05
2023-01-21T07:46:01.512Z,3.95
2023-01-21T07:48:28.215Z,4.55
2023-01-21T07:50:59.110Z,4.60
2023-01-21T07:53:26.505Z,4.88
2023-01-21T07:55:53.240Z,4.95
2023-01-21T07:58:19.934Z,3.67
2023-01-21T08:00:46.584Z,7.03
2023-01-21T08:03:13.142Z,7.65
2023-01-21T08:05:39.931Z,5.68
2023-01-21T08:08:06.649Z,6.18
2023-01-21T08:10:33.301Z,6.20
2023-01-21T08:13:01.843Z,4.00
2023-01-21T08:15:28.487Z,4.43
2023-01-21T08:17:56.474Z,7.13
2023-01-21T08:20:23.620Z,4.13
2023-01-21T08:22:50.307Z,4.82
2023-01-21T08:25:17.491Z,4.18
2023-01-21T08:27:44.343Z,6.55
2023-01-21T08:30:11.308Z,3.72
2023-01-21T08:32:37.928Z,4.72
2023-01-21T08:35:05.308Z,3.60
2023-01-21T08:37:31.875Z,5.25
2023-01-21T08:39:58.479Z,4.53
2023-01-21T08:42:25.194Z,4.40
2023-01-21T08:44:53.923Z,5.03
2023-01-21T08:47:20.552Z,5.28
2023-01-21T08:49:47.140Z,3.17
2023-01-21T08:52:14.069Z,3.28
2023-01-21T08:54:41.336Z,4.80
2023-01-21T08:57:07.997Z,3.85
2023-01-21T08:59:34.793Z,3.75
2023-01-21T09:02:01.530Z,3.40
2023-01-21T09:04:28.172Z,3.33
2023-01-21T09:06:54.764Z,4.30
2023-01-21T09:09:21.513Z,5.07
2023-01-21T09:11:48.097Z,4.18
2023-01-21T09:14:14.686Z,4.35
2023-01-21T09:16:41.266Z,3.95
2023-01-21T09:19:07.830Z,3.35
2023-01-21T09:21:34.852Z,4.75
2023-01-21T09:24:01.672Z,3.42
2023-01-21T09:26:28.475Z,4.20
2023-01-21T09:28:57.775Z,3.67
2023-01-21T09:31:26.104Z,4.72
2023-01-21T09:34:01.612Z,3.65
2023-01-21T09:36:31.431Z,3.67
2023-01-21T09:38:58.585Z,4.00
2023-01-21T09:41:38.516Z,3.55
2023-01-21T09:44:23.799Z,3.80
2023-01-21T09:47:16.826Z,4.53
2023-01-21T09:49:57.783Z,3.90
2023-01-21T09:52:36.893Z,4.00
2023-01-21T09:55:05.601Z,5.38
2023-01-21T09:57:52.026Z,3.30
2023-01-21T10:00:24.643Z,2.88
2023-01-21T10:03:09.832Z,4.25
2023-01-21T10:06:09.773Z,3.15
2023-01-21T10:09:12.613Z,3.47
2023-01-21T10:11:51.285Z,3.85
2023-01-21T10:14:20.850Z,3.80
2023-01-21T10:17:08.516Z,3.47
2023-01-21T10:19:59.722Z,3.78
2023-01-21T10:22:28.208Z,3.20
2023-01-21T10:25:04.084Z,3.03
2023-01-21T10:27:35.089Z,2.90
2023-01-21T10:30:20.186Z,3.80
2023-01-21T10:32:51.002Z,10.43
2023-01-21T10:35:18.945Z,3.45
2023-01-21T10:37:57.730Z,4.50
2023-01-21T10:40:44.551Z,11.00
2023-01-21T10:43:29.210Z,12.70
2023-01-21T10:46:10.908Z,8.60
2023-01-21T10:48:52.893Z,8.15
2023-01-21T10:51:27.081Z,7.13
2023-01-21T10:54:05.016Z,8.20
2023-01-21T10:56:47.917Z,4.45
2023-01-21T10:59:28.525Z,6.38
2023-01-21T11:02:08.632Z,9.50
2023-01-21T11:04:37.165Z,3.47
2023-01-21T11:07:06.032Z,4.95
2023-01-21T11:09:37.371Z,3.97
2023-01-21T11:12:04.453Z,5.03
2023-01-21T11:14:31.024Z,10.15
2023-01-21T11:16:57.975Z,12.93
2023-01-21T11:19:30.805Z,14.52
2023-01-21T11:22:04.804Z,14.50
2023-01-21T11:24:35.929Z,13.82
2023-01-21T11:27:02.761Z,13.35
2023-01-21T11:29:40.634Z,16.58
2023-01-21T11:32:19.566Z,13.05
2023-01-21T11:34:48.710Z,15.65
2023-01-21T11:37:26.434Z,18.90
2023-01-21T11:39:59.105Z,17.88
2023-01-21T11:42:26.160Z,19.73
2023-01-21T11:44:58.812Z,16.55
2023-01-21T11:47:36.880Z,12.90
2023-01-21T11:50:39.738Z,15.18
2023-01-21T11:53:18.636Z,11.77
2023-01-21T11:55:46.879Z,10.00
2023-01-21T11:58:19.367Z,10.73
2023-01-21T12:00:48.353Z,13.40
2023-01-21T12:03:18.649Z,10.85
2023-01-21T12:05:49.451Z,13.27
2023-01-21T12:08:25.830Z,11.93
2023-01-21T12:10:54.762Z,11.02
2023-01-21T12:13:30.311Z,10.88
2023-01-21T12:16:20.808Z,12.15
2023-01-21T12:19:16.260Z,9.20
2023-01-21T12:22:11.116Z,9.48
2023-01-21T12:25:15.471Z,11.45
2023-01-21T12:28:07.245Z,10.73
2023-01-21T12:31:00.018Z,10.30
2023-01-21T12:33:32.937Z,10.75
2023-01-21T12:36:05.621Z,9.02
2023-01-21T12:38:38.467Z,11.05
2023-01-21T12:41:11.646Z,12.40
2023-01-21T12:43:44.809Z,12.55
2023-01-21T12:46:24.687Z,7.63
2023-01-21T12:49:02.426Z,8.52
2023-01-21T12:51:37.709Z,9.38
2023-01-21T12:54:38.832Z,7.07
2023-01-21T12:57:17.505Z,10.65
2023-01-21T12:59:55.717Z,10.20
2023-01-21T13:02:34.154Z,10.05
2023-01-21T13:05:36.513Z,12.50
2023-01-21T13:08:30.557Z,6.30
2023-01-21T13:11:29.869Z,6.32
2023-01-21T13:14:08.477Z,8.85
2023-01-21T13:16:59.674Z,7.03
2023-01-21T13:19:26.498Z,5.80
2023-01-21T13:22:08.844Z,8.60
2023-01-21T13:24:46.293Z,5.78
2023-01-21T13:27:29.256Z,6.10
2023-01-21T13:30:40.300Z,6.90
2023-01-21T13:33:30.975Z,6.80
2023-01-21T13:36:09.178Z,7.43
2023-01-21T13:38:49.025Z,3.72
2023-01-21T13:41:23.065Z,5.78
2023-01-21T13:43:55.571Z,4.95
2023-01-21T13:46:55.089Z,5.55
2023-01-21T13:49:56.968Z,4.97
2023-01-21T13:52:31.368Z,4.43
2023-01-21T13:55:28.922Z,4.72
2023-01-21T13:58:04.832Z,7.18
2023-01-21T14:00:59.958Z,4.90
2023-01-21T14:03:35.215Z,6.10
2023-01-21T14:06:01.725Z,5.63
2023-01-21T14:08:44.138Z,5.70
2023-01-21T14:11:29.311Z,4.63
2023-01-21T14:14:24.179Z,9.55
2023-01-21T14:17:18.917Z,8.07
2023-01-21T14:20:07.180Z,6.65
2023-01-21T14:22:46.296Z,6.22
2023-01-21T14:25:32.456Z,7.00
2023-01-21T14:28:25.676Z,5.15
2023-01-21T14:31:04.571Z,5.40
2023-01-21T14:33:48.509Z,8.15
2023-01-21T14:36:36.562Z,5.10
2023-01-21T14:39:31.719Z,6.72
2023-01-21T14:42:04.369Z,6.00
2023-01-21T14:44:48.928Z,9.07
2023-01-21T14:47:16.671Z,5.78
2023-01-21T14:49:48.993Z,4.03
2023-01-21T14:52:18.556Z,4.15
2023-01-21T14:54:46.460Z,3.95
2023-01-21T14:57:25.521Z,4.70
2023-01-21T14:59:54.521Z,4.25
2023-01-21T15:02:34.304Z,4.72
2023-01-21T15:05:14.476Z,3.72
2023-01-21T15:07:44.515Z,5.20
2023-01-21T15:10:18.641Z,5.10
2023-01-21T15:12:59.485Z,3.75
2023-01-21T15:15:34.204Z,3.67
2023-01-21T15:18:24.001Z,3.13
2023-01-21T15:21:00.622Z,3.13
2023-01-21T15:23:30.303Z,3.97
2023-01-21T15:26:09.465Z,3.55
2023-01-21T15:28:44.847Z,9.30
2023-01-21T15:31:33.092Z,10.32
2023-01-21T15:34:11.236Z,11.13
2023-01-21T15:36:47.978Z,12.15
2023-01-21T15:39:25.254Z,9.57
2023-01-21T15:42:22.348Z,10.93
2023-01-21T15:45:13.576Z,8.52
2023-01-21T15:48:04.901Z,6.68
2023-01-21T15:50:42.364Z,6.07
2023-01-21T15:53:33.970Z,8.88
2023-01-21T15:56:37.622Z,6.87
2023-01-21T15:59:39.673Z,12.70
2023-01-21T16:02:25.980Z,5.40
2023-01-21T16:04:52.558Z,4.70
2023-01-21T16:07:41.068Z,4.93
2023-01-21T16:10:22.734Z,6.00
2023-01-21T16:13:17.192Z,4.00
2023-01-21T16:16:03.760Z,4.10
2023-01-21T16:19:13.764Z,8.05
2023-01-21T16:21:44.809Z,9.07
2023-01-21T16:24:25.033Z,7.63
2023-01-21T16:26:51.733Z,7.20
2023-01-21T16:29:18.447Z,7.82
2023-01-21T16:31:59.571Z,8.15
2023-01-21T16:34:42.976Z,5.93
2023-01-21T16:37:16.279Z,5.75
2023-01-21T16:39:43.956Z,6.68
2023-01-21T16:42:26.507Z,5.00
2023-01-21T16:44:53.661Z,6.10
2023-01-21T16:47:33.357Z,4.10
2023-01-21T16:50:00.970Z,4.25
2023-01-21T16:52:28.475Z,5.18
2023-01-21T16:54:56.114Z,3.92
2023-01-21T16:57:31.497Z,5.03
2023-01-21T17:00:02.135Z,5.28
2023-01-21T17:02:31.910Z,3.30
2023-01-21T17:05:02.006Z,3.40
2023-01-21T17:07:37.643Z,5.28
2023-01-21T17:10:19.676Z,2.67
2023-01-21T17:12:55.869Z,4.30
2023-01-21T17:15:40.971Z,4.28
2023-01-21T17:18:36.548Z,3.25
2023-01-21T17:21:16.566Z,5.07
2023-01-21T17:23:46.286Z,4.90
2023-01-21T17:26:33.604Z,4.15
2023-01-21T17:29:17.425Z,11.73
2023-01-21T17:31:44.996Z,7.28
2023-01-21T17:34:14.832Z,3.05
2023-01-21T17:36:46.432Z,5.97
2023-01-21T17:39:14.514Z,4.97
2023-01-21T17:41:43.864Z,3.38
2023-01-21T17:44:22.121Z,5.00
2023-01-21T17:46:52.337Z,4.45
2023-01-21T17:49:24.436Z,3.25
2023-01-21T17:51:53.907Z,2.47
2023-01-21T17:54:29.685Z,4.47
2023-01-21T17:56:58.975Z,3.95
2023-01-21T17:59:34.225Z,4.07
2023-01-21T18:02:02.505Z,3.50
2023-01-21T18:04:29.729Z,3.20
2023-01-21T18:06:57.026Z,2.95
2023-01-21T18:09:28.202Z,2.67
2023-01-21T18:11:57.348Z,3.00
2023-01-21T18:14:26.732Z,2.60
2023-01-21T18:16:54.553Z,3.20
2023-01-21T18:19:32.941Z,3.63
2023-01-21T18:22:00.809Z,2.70
2023-01-21T18:24:27.861Z,4.10
2023-01-21T18:26:56.784Z,3.50
2023-01-21T18:29:30.725Z,2.33
2023-01-21T18:31:58.533Z,2.47
2023-01-21T18:34:25.571Z,2.92
2023-01-21T18:36:52.428Z,3.35
2023-01-21T18:39:20.450Z,2.78
2023-01-21T18:41:47.753Z,2.67
2023-01-21T18:44:15.494Z,2.22
2023-01-21T18:46:43.391Z,2.30
2023-01-21T18:49:18.928Z,2.97
2023-01-21T18:51:46.070Z,2.55
2023-01-21T18:54:18.202Z,2.95
2023-01-21T18:59:17.565Z,2.30
2023-01-21T19:04:15.752Z,2.63
2023-01-21T19:06:42.898Z,2.50
2023-01-21T19:09:21.635Z,2.45
2023-01-21T19:11:48.827Z,2.30
2023-01-21T19:14:15.698Z,4.03
2023-01-21T19:16:43.441Z,3.70
2023-01-21T19:19:15.859Z,2.60
2023-01-21T19:21:42.911Z,2.80
2023-01-21T19:24:11.901Z,3.28
2023-01-21T19:26:39.104Z,2.70
2023-01-21T19:29:07.636Z,2.70
2023-01-21T19:31:34.496Z,2.70
2023-01-21T19:34:01.267Z,4.90
2023-01-21T19:36:28.025Z,3.17
2023-01-21T19:38:57.622Z,2.72
2023-01-21T19:41:24.547Z,4.00
2023-01-21T19:43:51.306Z,2.38
2023-01-21T19:46:18.588Z,6.30
2023-01-21T19:48:45.469Z,3.65
2023-01-21T19:51:13.002Z,2.42
2023-01-21T19:53:39.675Z,2.70
2023-01-21T19:56:06.830Z,2.60
2023-01-21T19:58:34.014Z,3.45
2023-01-21T20:01:00.891Z,2.95
2023-01-21T20:03:30.329Z,2.65
2023-01-21T20:06:04.278Z,4.65
2023-01-21T20:08:31.607Z,5.72
2023-01-21T20:10:58.391Z,4.32
2023-01-21T20:13:25.979Z,5.53
2023-01-21T20:15:52.971Z,4.15
2023-01-21T20:18:24.614Z,7.60
2023-01-21T20:20:52.599Z,3.72
2023-01-21T20:23:20.837Z,3.35
2023-01-21T20:25:51.781Z,5.47
2023-01-21T20:28:26.225Z,4.65
2023-01-21T20:30:54.661Z,4.60
2023-01-21T20:33:23.541Z,3.15
2023-01-21T20:35:53.824Z,4.00
2023-01-21T20:38:32.120Z,6.20
2023-01-21T20:41:00.331Z,5.55
2023-01-21T20:43:28.466Z,6.45
2023-01-21T20:46:00.064Z,4.50
2023-01-21T20:48:35.344Z,5.53
2023-01-21T20:51:02.635Z,4.15
2023-01-21T20:53:30.782Z,4.63
2023-01-21T20:56:00.455Z,6.95
2023-01-21T20:58:28.197Z,5.63
2023-01-21T21:00:55.276Z,7.60
2023-01-21T21:03:23.246Z,6.10
2023-01-21T21:05:49.928Z,6.82
2023-01-21T21:08:19.974Z,7.13
2023-01-21T21:10:47.706Z,7.03
2023-01-21T21:13:14.691Z,7.82
2023-01-21T21:15:45.039Z,4.97
2023-01-21T21:18:14.535Z,4.18
2023-01-21T21:20:41.747Z,6.95
2023-01-21T21:23:13.959Z,5.60
2023-01-21T21:25:47.204Z,6.18
2023-01-21T21:28:16.423Z,10.23
2023-01-21T21:30:43.820Z,8.20
2023-01-21T21:33:21.767Z,8.88
2023-01-21T21:35:49.800Z,8.55
2023-01-21T21:38:21.781Z,7.15
2023-01-21T21:43:38.697Z,8.57
2023-01-21T21:46:27.515Z,11.70
2023-01-21T21:48:54.258Z,6.75
2023-01-21T21:51:24.138Z,5.00
2023-01-21T21:53:50.996Z,7.75
2023-01-21T21:56:22.788Z,9.60
2023-01-21T21:58:50.425Z,14.65
2023-01-21T22:01:25.250Z,21.58
2023-01-21T22:03:52.444Z,21.92
2023-01-21T22:06:21.076Z,29.15
2023-01-21T22:08:49.177Z,22.70
2023-01-21T22:11:20.859Z,25.40
2023-01-21T22:13:50.366Z,21.80
2023-01-21T22:16:23.732Z,24.35
2023-01-21T22:18:51.446Z,21.58
2023-01-21T22:21:26.942Z,20.45
2023-01-21T22:23:54.732Z,26.35
2023-01-21T22:26:24.844Z,20.92
2023-01-21T22:28:52.389Z,19.48
2023-01-21T22:31:28.394Z,19.30
2023-01-21T22:33:56.639Z,17.58
2023-01-21T22:36:25.937Z,14.52
2023-01-21T22:38:53.316Z,11.50
2023-01-21T22:41:22.409Z,14.13
2023-01-21T22:43:50.040Z,11.43
2023-01-21T22:46:29.869Z,8.88
2023-01-21T22:48:57.273Z,7.18
2023-01-21T22:51:24.175Z,6.47
2023-01-21T22:53:51.927Z,11.13
2023-01-21T22:56:25.343Z,8.65
2023-01-21T22:58:58.319Z,6.28
2023-01-21T23:01:27.808Z,5.70
2023-01-21T23:03:54.530Z,5.88
2023-01-21T23:06:21.271Z,4.93
2023-01-21T23:08:48.000Z,8.02
2023-01-21T23:11:16.151Z,4.70
2023-01-21T23:13:42.972Z,4.15
2023-01-21T23:16:13.278Z,5.13
2023-01-21T23:18:41.874Z,4.68
2023-01-21T23:21:20.337Z,6.65
2023-01-21T23:23:47.869Z,4.30
2023-01-21T23:26:14.839Z,4.47
2023-01-21T23:28:41.655Z,7.13
2023-01-21T23:31:14.610Z,4.57
2023-01-21T23:33:42.284Z,4.85
2023-01-21T23:36:12.746Z,6.43
2023-01-21T23:38:40.598Z,3.97
2023-01-21T23:41:09.792Z,5.80
2023-01-21T23:43:37.008Z,4.78
2023-01-21T23:46:08.686Z,6.35
2023-01-21T23:48:35.559Z,4.18
2023-01-21T23:51:04.067Z,4.32
2023-01-21T23:53:32.024Z,6.20
2023-01-21T23:56:14.413Z,4.03
2023-01-21T23:58:41.453Z,4.68
